createdAt,value
2023-04-09T00:00:48.548Z,7.68
2023-04-09T00:03:51.339Z,7.43
2023-04-09T00:06:53.925Z,6.93
2023-04-09T00:09:56.632Z,5.68
2023-04-09T00:12:59.062Z,8.35
2023-04-09T00:16:01.520Z,7.03
2023-04-09T00:19:03.991Z,6.63
2023-04-09T00:22:06.527Z,6.60
2023-04-09T00:25:09.021Z,6.05
2023-04-09T00:28:11.442Z,5.30
2023-04-09T00:31:14.017Z,5.13
2023-04-09T00:34:16.984Z,4.50
2023-04-09T00:37:19.434Z,5.47
2023-04-09T00:40:21.890Z,5.05
2023-04-09T00:43:24.423Z,5.00
2023-04-09T00:46:27.435Z,5.78
2023-04-09T00:49:30.327Z,5.37
2023-04-09T00:52:33.334Z,5.25
2023-04-09T00:55:36.520Z,5.20
2023-04-09T00:58:41.102Z,6.23
2023-04-09T01:01:43.565Z,5.97
2023-04-09T01:04:46.248Z,6.63
2023-04-09T01:08:06.922Z,5.13
2023-04-09T01:11:51.031Z,7.57
2023-04-09T01:15:02.755Z,8.85
2023-04-09T01:18:10.795Z,9.13
2023-04-09T01:21:16.162Z,9.47
2023-04-09T01:24:42.853Z,9.02
2023-04-09T01:27:56.492Z,9.45
2023-04-09T01:31:13.578Z,8.67
2023-04-09T01:34:17.985Z,9.20
2023-04-09T01:37:21.017Z,8.70
2023-04-09T01:40:24.392Z,8.70
2023-04-09T01:43:27.768Z,8.52
2023-04-09T01:46:32.239Z,8.10
2023-04-09T01:49:36.195Z,8.00
2023-04-09T01:52:39.283Z,7.33
2023-04-09T01:55:41.757Z,7.18
2023-04-09T01:58:44.377Z,6.80
2023-04-09T02:02:03.951Z,5.93
2023-04-09T02:05:10.732Z,6.93
2023-04-09T02:08:19.919Z,6.50
2023-04-09T02:11:23.922Z,7.65
2023-04-09T02:14:28.426Z,7.05
2023-04-09T02:17:30.848Z,6.72
2023-04-09T02:20:33.796Z,7.72
2023-04-09T02:23:36.232Z,6.80
2023-04-09T02:26:38.630Z,6.65
2023-04-09T02:29:41.149Z,6.28
2023-04-09T02:32:44.049Z,6.90
2023-04-09T02:35:46.455Z,7.10
2023-04-09T02:38:48.884Z,6.57
2023-04-09T02:41:52.925Z,6.78
2023-04-09T02:44:55.735Z,6.22
2023-04-09T02:47:58.974Z,6.72
2023-04-09T02:51:05.675Z,7.30
2023-04-09T02:54:08.157Z,6.90
2023-04-09T02:57:10.557Z,6.38
2023-04-09T03:00:13.319Z,6.13
2023-04-09T03:03:18.316Z,5.60
2023-04-09T03:06:21.034Z,6.43
2023-04-09T03:09:23.477Z,6.13
2023-04-09T03:12:26.097Z,6.03
2023-04-09T03:15:28.521Z,6.57
2023-04-09T03:18:30.922Z,6.35
2023-04-09T03:21:33.506Z,6.13
2023-04-09T03:24:35.975Z,5.97
2023-04-09T03:27:41.390Z,6.65
2023-04-09T03:30:45.320Z,6.22
2023-04-09T03:33:48.977Z,6.13
2023-04-09T03:36:51.400Z,6.43
2023-04-09T03:40:03.251Z,6.00
2023-04-09T03:43:07.411Z,6.25
2023-04-09T03:46:16.232Z,6.25
2023-04-09T03:49:21.379Z,6.43
2023-04-09T03:52:24.334Z,6.32
2023-04-09T03:55:42.481Z,6.00
2023-04-09T03:58:52.488Z,6.55
2023-04-09T04:01:59.378Z,6.75
2023-04-09T04:05:03.728Z,5.90
2023-04-09T04:08:11.719Z,6.32
2023-04-09T04:11:14.268Z,6.75
2023-04-09T04:14:16.981Z,7.47
2023-04-09T04:17:23.076Z,7.20
2023-04-09T04:20:27.837Z,7.20
2023-04-09T04:23:36.850Z,7.32
2023-04-09T04:26:52.263Z,7.77
2023-04-09T04:29:58.846Z,7.90
2023-04-09T04:33:13.233Z,7.53
2023-04-09T04:36:21.557Z,7.63
2023-04-09T04:39:27.090Z,7.68
2023-04-09T04:42:37.498Z,7.80
2023-04-09T04:45:45.866Z,8.20
2023-04-09T04:48:49.728Z,9.90
2023-04-09T04:51:52.607Z,9.05
2023-04-09T04:54:55.403Z,9.27
2023-04-09T04:57:59.718Z,8.97
2023-04-09T05:01:05.483Z,8.30
2023-04-09T05:04:09.169Z,10.23
2023-04-09T05:07:13.377Z,9.50
2023-04-09T05:10:23.805Z,10.23
2023-04-09T05:13:26.392Z,13.40
2023-04-09T05:16:29.465Z,13.65
2023-04-09T05:19:38.763Z,11.13
2023-04-09T05:22:41.847Z,8.43
2023-04-09T05:25:44.977Z,9.07
2023-04-09T05:28:56.455Z,8.43
2023-04-09T05:32:00.056Z,12.15
2023-04-09T05:35:12.446Z,14.20
2023-04-09T05:38:18.984Z,22.77
2023-04-09T05:41:28.723Z,22.60
2023-04-09T05:44:49.747Z,16.15
2023-04-09T05:47:55.401Z,16.27
2023-04-09T05:51:00.482Z,11.00
2023-04-09T05:54:04.144Z,10.68
2023-04-09T05:57:10.522Z,16.42
2023-04-09T06:00:16.701Z,15.43
2023-04-09T06:03:19.677Z,15.35
2023-04-09T06:06:22.571Z,15.32
2023-04-09T06:09:25.004Z,16.77
2023-04-09T06:12:27.695Z,13.82
2023-04-09T06:15:30.152Z,13.23
2023-04-09T06:18:33.118Z,12.40
2023-04-09T06:21:35.530Z,12.00
2023-04-09T06:24:37.899Z,12.23
2023-04-09T06:27:40.333Z,11.98
2023-04-09T06:30:42.829Z,11.53
2023-04-09T06:33:45.331Z,11.63
2023-04-09T06:36:47.766Z,11.18
2023-04-09T06:40:00.435Z,10.33
2023-04-09T06:43:03.595Z,10.80
2023-04-09T06:46:17.270Z,9.40
2023-04-09T06:49:19.706Z,8.90
2023-04-09T06:52:22.054Z,8.30
2023-04-09T06:55:24.819Z,8.27
2023-04-09T06:58:27.212Z,8.82
2023-04-09T07:01:29.722Z,7.67
2023-04-09T07:04:32.643Z,8.05
2023-04-09T07:07:35.119Z,8.25
2023-04-09T07:10:38.555Z,7.53
2023-04-09T07:13:41.086Z,7.65
2023-04-09T07:16:46.320Z,8.40
2023-04-09T07:19:49.042Z,8.45
2023-04-09T07:22:51.515Z,9.07
2023-04-09T07:25:53.971Z,8.40
2023-04-09T07:28:56.566Z,8.38
2023-04-09T07:32:01.448Z,7.47
2023-04-09T07:35:06.398Z,9.98
2023-04-09T07:38:08.889Z,7.50
2023-04-09T07:41:11.812Z,7.37
2023-04-09T07:44:14.437Z,6.57
2023-04-09T07:47:16.834Z,8.32
2023-04-09T07:50:19.242Z,8.25
2023-04-09T07:53:21.846Z,7.35
2023-04-09T07:56:24.246Z,7.30
2023-04-09T07:59:27.627Z,7.50
2023-04-09T08:02:31.052Z,6.57
2023-04-09T08:05:33.774Z,6.70
2023-04-09T08:08:36.276Z,6.45
2023-04-09T08:11:38.628Z,5.70
2023-04-09T08:14:41.403Z,5.55
2023-04-09T08:17:43.840Z,6.68
2023-04-09T08:20:46.745Z,6.18
2023-04-09T08:23:49.432Z,6.90
2023-04-09T08:26:51.830Z,6.72
2023-04-09T08:29:54.249Z,7.20
2023-04-09T08:32:56.831Z,6.27
2023-04-09T08:36:00.839Z,5.28
2023-04-09T08:39:05.159Z,5.93
2023-04-09T08:42:08.911Z,5.30
2023-04-09T08:45:12.877Z,5.63
2023-04-09T08:48:17.125Z,6.25
2023-04-09T08:51:21.398Z,6.68
2023-04-09T08:54:26.753Z,6.88
2023-04-09T08:57:29.296Z,9.25
2023-04-09T09:00:32.546Z,6.70
2023-04-09T09:03:53.476Z,6.30
2023-04-09T09:07:06.650Z,8.65
2023-04-09T09:10:09.258Z,9.00
2023-04-09T09:13:25.736Z,7.50
2023-04-09T09:16:28.759Z,7.05
2023-04-09T09:19:36.683Z,7.28
2023-04-09T09:22:56.870Z,8.18
2023-04-09T09:25:59.654Z,7.78
2023-04-09T09:29:04.160Z,6.53
2023-04-09T09:32:13.791Z,6.72
2023-04-09T09:35:16.240Z,5.57
2023-04-09T09:38:18.903Z,5.85
2023-04-09T09:41:22.164Z,5.65
2023-04-09T09:44:33.911Z,6.27
2023-04-09T09:47:37.541Z,5.70
2023-04-09T09:50:43.747Z,5.07
2023-04-09T09:53:51.821Z,5.68
2023-04-09T09:56:58.227Z,5.60
2023-04-09T10:00:04.520Z,4.85
2023-04-09T10:03:19.946Z,5.55
2023-04-09T10:06:23.318Z,4.77
2023-04-09T10:09:28.019Z,5.03
2023-04-09T10:12:30.648Z,5.45
2023-04-09T10:15:33.179Z,6.27
2023-04-09T10:18:36.594Z,5.15
2023-04-09T10:21:54.726Z,6.47
2023-04-09T10:24:58.202Z,5.38
2023-04-09T10:28:02.461Z,6.10
2023-04-09T10:31:08.861Z,6.10
2023-04-09T10:34:11.413Z,5.68
2023-04-09T10:37:22.156Z,6.20
2023-04-09T10:40:24.786Z,6.25
2023-04-09T10:43:30.186Z,5.88
2023-04-09T10:46:36.894Z,6.33
2023-04-09T10:49:42.606Z,6.85
2023-04-09T10:52:45.379Z,6.38
2023-04-09T10:55:52.490Z,6.43
2023-04-09T10:58:54.874Z,6.03
2023-04-09T11:01:57.443Z,7.38
2023-04-09T11:05:18.058Z,6.40
2023-04-09T11:08:22.153Z,6.37
2023-04-09T11:11:28.268Z,6.57
2023-04-09T11:14:31.776Z,6.50
2023-04-09T11:17:37.114Z,6.23
2023-04-09T11:20:40.561Z,6.22
2023-04-09T11:23:52.277Z,6.28
2023-04-09T11:26:54.958Z,5.93
2023-04-09T11:29:57.381Z,6.93
2023-04-09T11:33:00.633Z,6.72
2023-04-09T11:36:06.528Z,6.15
2023-04-09T11:39:09.015Z,6.93
2023-04-09T11:42:14.984Z,7.43
2023-04-09T11:45:18.608Z,5.78
2023-04-09T11:48:23.427Z,6.13
2023-04-09T11:51:31.754Z,5.63
2023-04-09T11:54:34.865Z,6.32
2023-04-09T11:57:41.763Z,6.25
2023-04-09T12:00:45.411Z,5.95
2023-04-09T12:03:54.089Z,6.43
2023-04-09T12:06:58.727Z,5.70
2023-04-09T12:10:10.203Z,5.23
2023-04-09T12:13:13.689Z,5.97
2023-04-09T12:16:20.836Z,6.22
2023-04-09T12:19:25.820Z,6.03
2023-04-09T12:22:28.458Z,6.30
2023-04-09T12:25:32.239Z,5.38
2023-04-09T12:28:34.717Z,5.70
2023-04-09T12:31:37.391Z,6.60
2023-04-09T12:34:39.783Z,6.53
2023-04-09T12:37:42.884Z,6.60
2023-04-09T12:40:45.434Z,6.10
2023-04-09T12:43:48.582Z,6.45
2023-04-09T12:46:51.042Z,5.75
2023-04-09T12:49:54.546Z,6.30
2023-04-09T12:52:56.956Z,6.05
2023-04-09T12:55:59.365Z,5.63
2023-04-09T12:59:01.937Z,6.07
2023-04-09T13:02:04.666Z,6.15
2023-04-09T13:05:07.600Z,6.20
2023-04-09T13:08:10.054Z,6.20
2023-04-09T13:11:12.778Z,5.37
2023-04-09T13:14:15.658Z,5.95
2023-04-09T13:17:18.255Z,5.57
2023-04-09T13:20:20.994Z,5.23
2023-04-09T13:23:23.454Z,5.75
2023-04-09T13:26:25.986Z,5.88
2023-04-09T13:29:29.400Z,5.80
2023-04-09T13:32:32.073Z,5.85
2023-04-09T13:35:35.677Z,6.10
2023-04-09T13:38:38.420Z,5.80
2023-04-09T13:41:40.934Z,5.57
2023-04-09T13:44:45.477Z,5.50
2023-04-09T13:47:47.865Z,6.05
2023-04-09T13:50:50.955Z,5.50
2023-04-09T13:53:53.507Z,5.80
2023-04-09T13:56:56.105Z,6.03
2023-04-09T14:00:01.836Z,5.60
2023-04-09T14:03:07.806Z,5.63
2023-04-09T14:06:10.551Z,5.80
2023-04-09T14:09:13.170Z,6.35
2023-04-09T14:12:15.660Z,6.17
2023-04-09T14:15:18.034Z,5.53
2023-04-09T14:18:20.484Z,6.10
2023-04-09T14:21:23.670Z,6.17
2023-04-09T14:24:26.680Z,5.95
2023-04-09T14:27:29.093Z,5.75
2023-04-09T14:30:31.494Z,5.78
2023-04-09T14:33:33.996Z,4.90
2023-04-09T14:36:36.369Z,5.47
2023-04-09T14:39:38.862Z,7.88
2023-04-09T14:42:41.635Z,5.77
2023-04-09T14:45:44.217Z,6.07
2023-04-09T14:48:46.637Z,5.50
2023-04-09T14:51:49.387Z,5.73
2023-04-09T14:54:51.898Z,5.28
2023-04-09T14:57:54.355Z,5.20
2023-04-09T15:00:56.837Z,5.50
2023-04-09T15:03:59.408Z,5.35
2023-04-09T15:07:01.894Z,5.20
2023-04-09T15:10:04.600Z,5.20
2023-04-09T15:13:07.058Z,5.00
2023-04-09T15:16:09.741Z,5.60
2023-04-09T15:19:12.242Z,5.60
2023-04-09T15:22:14.957Z,4.90
2023-04-09T15:25:17.718Z,4.93
2023-04-09T15:28:20.471Z,5.50
2023-04-09T15:31:22.861Z,5.45
2023-04-09T15:34:26.188Z,4.75
2023-04-09T15:37:28.626Z,4.75
2023-04-09T15:40:31.981Z,5.35
2023-04-09T15:43:34.435Z,5.37
2023-04-09T15:46:39.675Z,14.25
2023-04-09T15:49:42.114Z,9.30
2023-04-09T15:52:44.576Z,9.10
2023-04-09T15:55:47.621Z,15.25
2023-04-09T15:58:50.025Z,20.90
2023-04-09T16:01:52.980Z,13.45
2023-04-09T16:04:55.635Z,16.60
2023-04-09T16:07:59.941Z,10.52
2023-04-09T16:11:03.807Z,9.80
2023-04-09T16:14:06.236Z,14.23
2023-04-09T16:17:08.799Z,16.05
2023-04-09T16:20:11.597Z,8.68
2023-04-09T16:23:13.952Z,7.00
2023-04-09T16:26:16.453Z,7.63
2023-04-09T16:29:18.895Z,8.07
2023-04-09T16:32:21.475Z,6.55
2023-04-09T16:35:24.142Z,7.63
2023-04-09T16:38:27.598Z,9.00
2023-04-09T16:41:30.114Z,6.60
2023-04-09T16:44:32.610Z,6.87
2023-04-09T16:47:35.105Z,6.15
2023-04-09T16:50:39.153Z,6.10
2023-04-09T16:53:41.578Z,5.87
2023-04-09T16:56:44.170Z,5.95
2023-04-09T16:59:47.194Z,5.68
2023-04-09T17:02:49.925Z,6.35
2023-04-09T17:05:53.794Z,6.65
2023-04-09T17:08:57.330Z,6.53
2023-04-09T17:11:59.754Z,6.18
2023-04-09T17:15:02.421Z,5.87
2023-04-09T17:18:04.912Z,6.07
2023-04-09T17:21:07.389Z,6.00
2023-04-09T17:24:09.988Z,6.77
2023-04-09T17:27:12.368Z,6.43
2023-04-09T17:30:14.909Z,6.10
2023-04-09T17:33:17.359Z,6.28
2023-04-09T17:36:21.128Z,8.25
2023-04-09T17:39:29.006Z,7.93
2023-04-09T17:42:31.556Z,7.13
2023-04-09T17:45:34.013Z,6.77
2023-04-09T17:48:37.186Z,7.75
2023-04-09T17:51:39.691Z,7.60
2023-04-09T17:54:45.544Z,11.47
2023-04-09T17:57:48.136Z,10.20
2023-04-09T18:00:52.923Z,8.18
2023-04-09T18:03:55.456Z,9.05
2023-04-09T18:06:58.018Z,8.95
2023-04-09T18:10:02.045Z,9.30
2023-04-09T18:13:04.646Z,12.95
2023-04-09T18:16:12.145Z,15.30
2023-04-09T18:19:14.911Z,11.13
2023-04-09T18:22:17.337Z,7.53
2023-04-09T18:25:19.821Z,6.37
2023-04-09T18:28:22.368Z,6.55
2023-04-09T18:31:25.245Z,6.32
2023-04-09T18:34:29.093Z,6.05
2023-04-09T18:37:31.526Z,6.00
2023-04-09T18:40:41.721Z,6.35
2023-04-09T18:43:44.135Z,5.97
2023-04-09T18:46:46.761Z,6.10
2023-04-09T18:49:49.549Z,5.82
2023-04-09T18:52:52.031Z,7.60
2023-04-09T18:55:54.539Z,6.17
2023-04-09T18:58:56.985Z,6.55
2023-04-09T19:02:01.192Z,6.10
2023-04-09T19:05:07.065Z,6.10
2023-04-09T19:08:09.794Z,5.82
2023-04-09T19:11:12.910Z,5.93
2023-04-09T19:14:15.666Z,5.85
2023-04-09T19:17:18.139Z,6.10
2023-04-09T19:20:20.915Z,5.75
2023-04-09T19:23:23.680Z,5.82
2023-04-09T19:26:27.345Z,6.07
2023-04-09T19:29:31.280Z,5.95
2023-04-09T19:32:33.649Z,6.32
2023-04-09T19:35:40.590Z,6.60
2023-04-09T19:38:43.383Z,5.93
2023-04-09T19:41:45.808Z,6.43
2023-04-09T19:44:48.259Z,7.38
2023-04-09T19:47:50.678Z,7.87
2023-04-09T19:50:53.291Z,7.25
2023-04-09T19:53:56.423Z,8.55
2023-04-09T19:56:59.922Z,8.43
2023-04-09T20:00:02.439Z,9.43
2023-04-09T20:03:13.933Z,9.93
2023-04-09T20:06:16.576Z,9.90
2023-04-09T20:09:19.050Z,9.30
2023-04-09T20:12:23.730Z,9.43
2023-04-09T20:15:26.277Z,10.32
2023-04-09T20:18:28.852Z,9.57
2023-04-09T20:21:31.409Z,9.43
2023-04-09T20:24:35.315Z,9.02
2023-04-09T20:27:38.078Z,8.27
2023-04-09T20:30:40.535Z,8.25
2023-04-09T20:33:42.957Z,8.45
2023-04-09T20:36:47.656Z,9.18
2023-04-09T20:39:50.457Z,9.48
2023-04-09T20:42:52.922Z,8.57
2023-04-09T20:45:55.449Z,7.53
2023-04-09T20:48:58.107Z,7.83
2023-04-09T20:52:00.762Z,9.18
2023-04-09T20:55:03.328Z,9.18
2023-04-09T20:58:06.172Z,11.77
2023-04-09T21:01:10.449Z,15.80
2023-04-09T21:04:13.264Z,20.35
2023-04-09T21:07:16.227Z,18.52
2023-04-09T21:10:19.354Z,18.80
2023-04-09T21:13:22.864Z,18.10
2023-04-09T21:16:28.424Z,15.77
2023-04-09T21:19:31.083Z,13.90
2023-04-09T21:22:34.469Z,14.85
2023-04-09T21:25:37.042Z,12.95
2023-04-09T21:28:40.349Z,14.27
2023-04-09T21:31:42.872Z,12.48
2023-04-09T21:34:45.310Z,11.25
2023-04-09T21:37:48.108Z,10.65
2023-04-09T21:40:50.724Z,9.55
2023-04-09T21:43:53.439Z,10.20
2023-04-09T21:46:56.216Z,9.57
2023-04-09T21:49:58.653Z,8.53
2023-04-09T21:53:01.113Z,8.77
2023-04-09T21:56:04.798Z,8.35
2023-04-09T21:59:07.459Z,9.83
2023-04-09T22:02:10.017Z,8.40
2023-04-09T22:05:12.718Z,9.73
2023-04-09T22:08:15.124Z,8.77
2023-04-09T22:11:17.511Z,8.98
2023-04-09T22:14:21.741Z,9.32
2023-04-09T22:17:24.222Z,9.40
2023-04-09T22:20:27.828Z,8.53
2023-04-09T22:23:30.217Z,9.73
2023-04-09T22:26:32.804Z,9.18
2023-04-09T22:29:35.803Z,10.37
2023-04-09T22:32:38.312Z,9.43
2023-04-09T22:35:41.319Z,9.73
2023-04-09T22:38:43.721Z,9.35
2023-04-09T22:41:46.365Z,9.55
2023-04-09T22:44:48.878Z,8.98
2023-04-09T22:47:51.353Z,9.45
2023-04-09T22:50:53.766Z,8.80
2023-04-09T22:53:56.626Z,9.55
2023-04-09T22:56:59.047Z,10.55
2023-04-09T23:00:01.735Z,10.10
2023-04-09T23:03:06.051Z,10.15
2023-04-09T23:06:08.910Z,9.70
2023-04-09T23:09:11.644Z,11.35
2023-04-09T23:12:14.177Z,10.38
2023-04-09T23:15:16.789Z,10.63
2023-04-09T23:18:19.257Z,11.13
2023-04-09T23:21:21.686Z,9.47
2023-04-09T23:24:24.247Z,10.52
2023-04-09T23:27:28.802Z,10.02
2023-04-09T23:30:32.223Z,9.63
2023-04-09T23:33:34.704Z,9.98
2023-04-09T23:36:37.055Z,10.75
2023-04-09T23:39:39.731Z,10.80
2023-04-09T23:42:42.131Z,10.32
2023-04-09T23:45:44.715Z,9.10
2023-04-09T23:48:47.266Z,9.85
2023-04-09T23:51:51.119Z,9.93
2023-04-09T23:54:54.089Z,10.38
2023-04-09T23:57:56.811Z,10.75
